Time;durP1;ratioP1;P1;durP2;ratioP2;P2;SDS_P1;SDS_P2;PMS_P1;PMS_P2;Temp;Humidity;BMP_temperature;BMP_pressure;BME280_temperature;BME280_humidity;BME280_pressure;Samples;Min_cycle;Max_cycle;Signal;HPM_P1;HPM_P2
2022/05/13 00:00:47;;;;;;;6.95;2.05;;;18.50;99.90;;;;;;5063816;28;20623;-83
2022/05/13 00:03:20;;;;;;;8.30;2.20;;;18.60;99.90;;;;;;5062770;28;20335;-83
2022/05/13 00:05:51;;;;;;;5.45;2.08;;;18.60;99.90;;;;;;5065941;28;20242;-82
2022/05/13 00:08:21;;;;;;;8.63;2.20;;;18.60;99.90;;;;;;5068498;28;20314;-83
2022/05/13 00:10:52;;;;;;;4.93;2.20;;;18.60;99.90;;;;;;5064281;28;20197;-83
2022/05/13 00:13:23;;;;;;;6.93;2.17;;;18.60;99.90;;;;;;5062968;28;20748;-83
2022/05/13 00:15:55;;;;;;;6.05;2.30;;;18.60;99.90;;;;;;5073840;28;20199;-83
2022/05/13 00:18:27;;;;;;;5.97;2.25;;;18.70;99.90;;;;;;5067991;28;20274;-83
2022/05/13 00:20:58;;;;;;;10.70;2.50;;;18.70;99.90;;;;;;5067610;28;20193;-83
2022/05/13 00:23:29;;;;;;;4.03;1.92;;;18.60;99.90;;;;;;5066809;28;20209;-82
2022/05/13 00:25:59;;;;;;;8.75;2.28;;;18.60;99.90;;;;;;5067016;28;20205;-82
2022/05/13 00:28:30;;;;;;;7.55;2.08;;;18.70;99.90;;;;;;5059380;28;20246;-82
2022/05/13 00:31:04;;;;;;;6.97;2.10;;;18.70;99.90;;;;;;5064430;28;20189;-82
2022/05/13 00:33:37;;;;;;;6.30;1.90;;;18.70;99.90;;;;;;5062597;28;20216;-83
2022/05/13 00:36:08;;;;;;;6.20;1.90;;;18.70;99.90;;;;;;5063473;28;20649;-83
2022/05/13 00:38:38;;;;;;;9.27;2.08;;;18.70;99.90;;;;;;5061438;28;20205;-84
2022/05/13 00:41:09;;;;;;;5.75;1.90;;;18.70;99.90;;;;;;5063413;28;20657;-83
2022/05/13 00:43:49;;;;;;;4.55;1.70;;;18.70;99.90;;;;;;5064795;28;20270;-83
2022/05/13 00:46:20;;;;;;;4.63;1.52;;;18.60;99.90;;;;;;5069439;28;20192;-83
2022/05/13 00:48:53;;;;;;;14.43;4.63;;;18.70;99.90;;;;;;5065969;28;20193;-83
2022/05/13 00:51:26;;;;;;;7.18;3.42;;;18.70;99.90;;;;;;5071322;28;20193;-83
2022/05/13 00:53:57;;;;;;;7.15;2.25;;;18.70;99.90;;;;;;5072241;28;20208;-84
2022/05/13 00:56:28;;;;;;;7.10;1.65;;;18.80;99.90;;;;;;5069623;28;20303;-83
2022/05/13 00:59:01;;;;;;;5.78;1.60;;;18.80;99.90;;;;;;5069396;28;20200;-83
2022/05/13 01:01:33;;;;;;;4.15;1.45;;;18.80;99.90;;;;;;5072051;28;20193;-83
2022/05/13 01:04:09;;;;;;;3.08;1.30;;;18.80;99.90;;;;;;5069909;28;20579;-83
2022/05/13 01:06:41;;;;;;;4.68;1.42;;;18.80;99.90;;;;;;5069285;28;20585;-83
2022/05/13 01:09:12;;;;;;;5.90;1.40;;;18.80;99.90;;;;;;4973690;28;2471600;-83
2022/05/13 01:11:45;;;;;;;7.15;1.50;;;18.80;99.90;;;;;;5061503;28;20250;-83
2022/05/13 01:14:23;;;;;;;5.65;1.60;;;18.80;99.90;;;;;;5068993;28;20303;-84
2022/05/13 01:19:42;;;;;;;4.43;1.80;;;18.80;99.90;;;;;;5064908;28;20326;-84
2022/05/13 01:22:19;;;;;;;7.93;2.25;;;18.90;99.90;;;;;;5069953;28;20215;-83
2022/05/13 01:24:50;;;;;;;7.45;2.00;;;18.90;99.90;;;;;;5063625;28;20196;-83
2022/05/13 01:27:21;;;;;;;5.65;1.83;;;18.90;99.90;;;;;;5066046;28;20203;-83
2022/05/13 01:29:52;;;;;;;7.00;1.90;;;18.90;99.90;;;;;;5066051;28;20603;-83
2022/05/13 01:32:22;;;;;;;8.05;1.80;;;18.90;99.90;;;;;;5062771;28;20668;-84
2022/05/13 01:34:53;;;;;;;4.20;1.55;;;18.90;99.90;;;;;;5065926;28;20267;-84
2022/05/13 01:37:26;;;;;;;6.97;1.70;;;19.00;99.90;;;;;;5069000;28;20262;-83
2022/05/13 01:39:56;;;;;;;5.43;1.70;;;19.00;99.90;;;;;;5072741;28;20231;-84
2022/05/13 01:42:27;;;;;;;8.20;1.75;;;18.90;99.90;;;;;;5057766;28;20193;-84
2022/05/13 01:44:58;;;;;;;4.68;1.55;;;19.00;99.90;;;;;;5065069;28;20204;-83
2022/05/13 01:47:29;;;;;;;8.35;2.05;;;19.00;99.90;;;;;;5062999;28;20189;-83
2022/05/13 01:50:00;;;;;;;9.15;2.10;;;19.10;99.90;;;;;;5063943;28;20608;-84
2022/05/13 01:52:33;;;;;;;8.60;2.10;;;19.10;99.90;;;;;;5060150;28;20320;-84
2022/05/13 01:55:04;;;;;;;5.18;1.90;;;19.10;99.90;;;;;;5058631;28;20290;-84
2022/05/13 01:57:34;;;;;;;4.85;1.88;;;19.20;99.90;;;;;;5062566;28;20247;-83
2022/05/13 02:00:06;;;;;;;9.10;2.28;;;19.20;99.90;;;;;;5053747;28;20251;-84
2022/05/13 02:03:44;;;;;;;6.30;2.08;;;19.20;99.90;;;;;;5052940;28;20205;-84
2022/05/13 02:05:27;;;;;;;5.70;2.10;;;19.20;99.90;;;;;;5063797;28;20197;-84
2022/05/13 02:07:59;;;;;;;21.10;6.30;;;19.20;99.90;;;;;;5069881;28;20246;-84
2022/05/13 02:10:30;;;;;;;14.57;4.40;;;19.20;99.90;;;;;;5056684;28;20201;-83
2022/05/13 02:13:01;;;;;;;49.30;32.33;;;19.30;99.90;;;;;;5067941;28;20444;-84
2022/05/13 02:15:31;;;;;;;20.25;9.45;;;19.40;99.90;;;;;;5070482;28;20604;-84
2022/05/13 02:18:02;;;;;;;15.55;9.93;;;19.40;99.90;;;;;;5060713;28;20656;-84
2022/05/13 02:20:33;;;;;;;9.38;5.10;;;19.50;99.90;;;;;;5055719;28;20194;-84
2022/05/13 02:23:05;;;;;;;8.88;4.35;;;19.50;99.90;;;;;;5053814;28;20197;-85
2022/05/13 02:25:37;;;;;;;3.97;2.33;;;19.50;99.90;;;;;;5071410;28;20197;-86
2022/05/13 02:28:08;;;;;;;8.50;4.90;;;19.50;99.90;;;;;;5072845;28;20189;-85
2022/05/13 02:30:39;;;;;;;6.47;2.85;;;19.60;99.90;;;;;;5070473;28;20243;-85
2022/05/13 02:33:09;;;;;;;6.28;2.55;;;19.50;99.90;;;;;;5057648;28;20254;-85
2022/05/13 02:35:40;;;;;;;7.85;2.97;;;19.50;99.90;;;;;;5056675;28;20254;-85
2022/05/13 02:38:16;;;;;;;7.05;2.60;;;19.50;99.90;;;;;;5068378;28;20197;-85
2022/05/13 02:43:34;;;;;;;8.57;4.00;;;19.70;99.90;;;;;;5078840;28;20643;-85
2022/05/13 02:46:05;;;;;;;6.40;2.70;;;19.70;99.90;;;;;;5071542;28;20197;-84
2022/05/13 02:48:35;;;;;;;8.55;4.35;;;19.70;99.90;;;;;;5056023;28;20190;-85
2022/05/13 02:51:06;;;;;;;5.28;2.60;;;19.80;99.90;;;;;;5055853;28;20618;-84
2022/05/13 02:53:39;;;;;;;4.60;2.30;;;19.70;99.90;;;;;;5055932;28;20190;-85
2022/05/13 02:56:09;;;;;;;4.30;2.00;;;19.60;99.90;;;;;;5066290;28;20218;-85
2022/05/13 02:58:41;;;;;;;4.90;2.10;;;19.60;99.90;;;;;;5055962;28;20194;-85
2022/05/13 03:01:14;;;;;;;6.50;2.30;;;19.70;99.90;;;;;;5069372;28;20707;-85
2022/05/13 03:03:46;;;;;;;5.53;2.08;;;19.70;99.90;;;;;;5065290;28;20189;-85
2022/05/13 03:06:18;;;;;;;4.53;1.70;;;19.60;99.90;;;;;;5075876;28;20193;-85
2022/05/13 03:08:51;;;;;;;3.35;1.38;;;19.60;99.90;;;;;;5070274;28;20287;-85
2022/05/13 03:11:23;;;;;;;4.30;1.70;;;19.60;99.90;;;;;;5055582;28;20236;-85
2022/05/13 03:13:54;;;;;;;3.67;1.40;;;19.70;99.90;;;;;;5055889;28;20193;-85
2022/05/13 03:16:26;;;;;;;6.25;1.70;;;19.70;99.90;;;;;;5055745;28;20604;-85
2022/05/13 03:18:58;;;;;;;3.65;1.40;;;19.80;99.90;;;;;;5055756;28;20283;-85
2022/05/13 03:21:29;;;;;;;4.78;1.40;;;19.80;99.90;;;;;;5065040;28;20558;-85
2022/05/13 03:24:02;;;;;;;3.38;1.55;;;19.80;99.90;;;;;;5055581;28;20190;-85
2022/05/13 03:26:32;;;;;;;2.67;1.10;;;19.80;99.90;;;;;;5055546;28;20198;-85
2022/05/13 03:29:04;;;;;;;5.05;1.20;;;19.80;99.90;;;;;;5055322;28;20217;-85
2022/05/13 03:31:36;;;;;;;3.78;1.10;;;19.80;99.90;;;;;;5056107;28;20225;-85
2022/05/13 03:34:06;;;;;;;5.30;1.20;;;19.90;99.90;;;;;;5058008;28;20290;-85
2022/05/13 03:36:37;;;;;;;3.80;1.10;;;19.80;99.90;;;;;;5063731;28;20201;-85
2022/05/13 03:39:10;;;;;;;3.67;1.20;;;19.90;99.90;;;;;;5073261;28;20189;-84
2022/05/13 03:41:40;;;;;;;4.50;1.55;;;19.90;99.90;;;;;;5074849;28;20597;-85
2022/05/13 03:44:11;;;;;;;6.28;1.10;;;19.90;99.90;;;;;;5075180;28;20254;-84
2022/05/13 03:46:41;;;;;;;3.10;1.08;;;19.90;99.90;;;;;;5073625;28;20216;-85
2022/05/13 03:49:12;;;;;;;2.90;1.17;;;19.90;99.90;;;;;;5075169;28;20279;-85
2022/05/13 03:51:43;;;;;;;3.25;1.10;;;19.90;99.90;;;;;;5061603;28;20189;-84
2022/05/13 03:54:16;;;;;;;2.47;1.27;;;19.80;99.90;;;;;;5056223;28;20267;-84
2022/05/13 03:56:46;;;;;;;3.92;1.10;;;19.80;99.90;;;;;;5062850;28;20213;-85
2022/05/13 03:59:17;;;;;;;3.22;1.13;;;19.80;99.90;;;;;;5075126;28;20185;-84
2022/05/13 04:01:47;;;;;;;4.53;0.90;;;19.90;99.90;;;;;;5069546;28;20189;-84
2022/05/13 04:04:21;;;;;;;4.50;1.33;;;19.90;99.90;;;;;;5058866;28;20244;-84
2022/05/13 04:09:40;;;;;;;1.95;1.00;;;20.00;99.90;;;;;;5063962;28;20282;-84
2022/05/13 04:17:44;;;;;;;4.15;1.10;;;20.20;99.90;;;;;;5074582;28;20208;-84
2022/05/13 04:20:21;;;;;;;3.13;1.10;;;20.20;99.90;;;;;;5070550;28;20186;-84
2022/05/13 04:22:51;;;;;;;1.90;0.80;;;20.20;99.90;;;;;;5074386;28;20193;-84
2022/05/13 04:25:24;;;;;;;3.97;0.70;;;20.30;99.90;;;;;;5059966;28;20714;-84
2022/05/13 04:27:55;;;;;;;1.17;0.90;;;20.20;99.90;;;;;;5065577;28;20223;-84
2022/05/13 04:30:25;;;;;;;2.92;0.68;;;20.20;99.90;;;;;;5054337;28;20532;-83
2022/05/13 04:32:56;;;;;;;3.03;0.80;;;20.20;99.90;;;;;;5053968;28;20190;-86
2022/05/13 04:35:27;;;;;;;2.83;0.70;;;20.20;99.90;;;;;;5065254;28;20209;-85
2022/05/13 04:37:57;;;;;;;3.13;0.70;;;20.20;99.90;;;;;;5054100;28;20247;-86
2022/05/13 04:40:30;;;;;;;2.10;0.57;;;20.20;99.90;;;;;;5055654;28;20193;-84
2022/05/13 04:43:00;;;;;;;1.60;0.55;;;20.20;99.90;;;;;;5054131;28;20197;-84
2022/05/13 04:45:33;;;;;;;1.40;0.60;;;20.30;99.90;;;;;;5059972;28;20615;-84
2022/05/13 04:48:21;;;;;;;2.20;0.70;;;20.30;99.90;;;;;;5073646;28;20197;-84
2022/05/13 04:50:57;;;;;;;1.17;0.50;;;20.30;99.90;;;;;;5060432;28;20255;-83
2022/05/13 04:53:30;;;;;;;3.45;0.70;;;20.30;99.90;;;;;;5058114;28;20213;-84
2022/05/13 04:56:04;;;;;;;2.00;0.70;;;20.30;99.90;;;;;;5073275;28;20320;-85
2022/05/13 04:58:35;;;;;;;2.13;0.70;;;20.30;99.90;;;;;;5053709;28;20241;-83
2022/05/13 05:01:07;;;;;;;1.50;0.60;;;20.30;99.90;;;;;;5058799;28;20670;-83
2022/05/13 05:03:40;;;;;;;2.65;0.80;;;20.30;99.90;;;;;;5065248;28;20196;-82
2022/05/13 05:06:12;;;;;;;2.90;0.73;;;20.30;99.90;;;;;;5066815;28;20266;-83
2022/05/13 05:08:43;;;;;;;1.65;0.80;;;20.30;99.90;;;;;;5072912;28;20237;-83
2022/05/13 05:11:16;;;;;;;2.25;0.98;;;20.40;99.90;;;;;;5066991;28;20641;-83
2022/05/13 05:13:48;;;;;;;2.15;0.82;;;20.40;99.90;;;;;;5062490;28;20197;-82
2022/05/13 05:16:22;;;;;;;5.07;1.00;;;20.40;99.90;;;;;;5070417;28;20217;-83
2022/05/13 05:18:52;;;;;;;4.32;1.10;;;20.50;99.90;;;;;;5069077;28;20201;-85
2022/05/13 05:21:23;;;;;;;1.90;0.90;;;20.50;99.90;;;;;;5072547;28;20193;-83
2022/05/13 05:23:55;;;;;;;4.93;1.20;;;20.50;99.90;;;;;;5068365;28;20196;-82
2022/05/13 05:26:27;;;;;;;2.63;1.00;;;20.60;99.90;;;;;;5058748;28;20205;-82
2022/05/13 05:28:58;;;;;;;3.25;0.85;;;20.60;99.90;;;;;;5072214;28;20201;-81
2022/05/13 05:31:29;;;;;;;2.95;0.90;;;20.70;99.90;;;;;;5065791;28;20201;-82
2022/05/13 05:33:59;;;;;;;2.20;0.70;;;20.70;99.90;;;;;;5072153;28;20596;-82
2022/05/13 05:36:30;;;;;;;2.67;1.05;;;20.70;99.90;;;;;;5066036;28;20224;-82
2022/05/13 05:39:01;;;;;;;2.63;0.75;;;20.70;99.90;;;;;;5058476;28;20197;-81
2022/05/13 05:41:33;;;;;;;2.33;1.02;;;20.70;99.90;;;;;;5072319;28;20664;-83
2022/05/13 05:44:04;;;;;;;3.53;0.93;;;20.70;99.90;;;;;;5071598;28;20197;-81
2022/05/13 05:46:34;;;;;;;4.45;0.90;;;20.70;99.90;;;;;;5056925;28;20201;-81
2022/05/13 05:49:05;;;;;;;2.40;0.63;;;20.70;99.90;;;;;;5052995;28;20597;-81
2022/05/13 05:51:36;;;;;;;3.10;0.75;;;20.70;99.90;;;;;;5057095;28;20206;-80
2022/05/13 05:59:41;;;;;;;3.08;0.75;;;20.50;99.90;;;;;;5073291;28;20191;-82
2022/05/13 06:02:12;;;;;;;5.65;1.00;;;20.50;99.90;;;;;;5064781;28;20192;-81
2022/05/13 06:04:43;;;;;;;2.15;0.80;;;20.50;99.90;;;;;;5065070;28;20189;-82
2022/05/13 06:07:16;;;;;;;3.67;1.13;;;20.60;99.90;;;;;;5069867;28;20713;-82
2022/05/13 06:09:47;;;;;;;4.63;1.02;;;20.50;99.90;;;;;;5075646;28;20232;-83
2022/05/13 06:12:19;;;;;;;4.18;0.98;;;20.50;99.90;;;;;;5067700;28;20200;-81
2022/05/13 06:14:50;;;;;;;3.20;1.20;;;20.50;99.90;;;;;;5073811;28;20207;-82
2022/05/13 06:17:21;;;;;;;4.40;1.50;;;20.50;99.90;;;;;;5074797;28;20201;-82
2022/05/13 06:19:51;;;;;;;5.63;1.50;;;20.40;99.90;;;;;;5072222;28;20289;-82
2022/05/13 06:22:22;;;;;;;5.65;1.95;;;20.40;99.90;;;;;;5073968;28;20233;-82
2022/05/13 06:24:53;;;;;;;4.50;1.90;;;20.30;99.90;;;;;;5072125;28;20196;-83
2022/05/13 06:27:25;;;;;;;3.80;1.67;;;20.30;99.90;;;;;;5066528;28;20198;-83
2022/05/13 06:29:56;;;;;;;5.13;1.95;;;20.30;99.90;;;;;;5075662;28;20193;-82
2022/05/13 06:32:27;;;;;;;4.72;2.25;;;20.30;99.90;;;;;;5069158;28;20196;-82
2022/05/13 06:34:57;;;;;;;4.75;2.25;;;20.20;99.90;;;;;;5071043;28;20266;-83
2022/05/13 06:37:28;;;;;;;8.35;2.80;;;20.20;99.90;;;;;;5074346;28;20185;-81
2022/05/13 06:39:58;;;;;;;4.57;2.55;;;20.10;99.90;;;;;;5067753;28;20196;-82
2022/05/13 06:42:31;;;;;;;6.30;2.72;;;20.10;99.90;;;;;;5069536;28;20621;-82
2022/05/13 06:45:02;;;;;;;9.25;2.83;;;20.10;99.90;;;;;;5073126;28;20197;-82
2022/05/13 06:47:32;;;;;;;7.78;3.00;;;20.00;99.90;;;;;;5073716;28;20216;-82
2022/05/13 06:50:05;;;;;;;5.90;2.85;;;20.20;99.90;;;;;;5073196;28;20193;-83
2022/05/13 06:52:36;;;;;;;9.65;3.13;;;20.00;99.90;;;;;;5065949;28;20201;-82
2022/05/13 06:55:07;;;;;;;6.53;3.00;;;19.90;99.90;;;;;;5072324;28;20656;-82
2022/05/13 06:57:40;;;;;;;7.93;3.33;;;19.90;99.90;;;;;;5073568;28;21184;-83
2022/05/13 07:00:12;;;;;;;7.97;3.40;;;19.90;99.90;;;;;;5065047;28;20257;-82
2022/05/13 07:02:43;;;;;;;7.38;3.22;;;19.80;99.90;;;;;;5071708;28;20187;-82
2022/05/13 07:05:15;;;;;;;7.93;3.30;;;19.70;99.90;;;;;;5070857;28;20189;-83
2022/05/13 07:07:46;;;;;;;7.80;3.60;;;19.70;99.90;;;;;;5069587;28;20185;-84
2022/05/13 07:10:17;;;;;;;7.60;3.55;;;19.70;99.90;;;;;;5075372;28;20238;-85
2022/05/13 07:12:50;;;;;;;6.25;3.40;;;19.70;99.90;;;;;;5066443;28;20197;-84
2022/05/13 07:15:22;;;;;;;6.45;3.40;;;19.60;99.90;;;;;;5074624;28;20300;-85
2022/05/13 07:17:52;;;;;;;8.07;3.38;;;19.60;99.90;;;;;;5075219;28;20185;-91
2022/05/13 07:20:25;;;;;;;7.05;3.50;;;19.50;99.90;;;;;;5074932;28;20185;-83
2022/05/13 07:22:56;;;;;;;6.95;3.78;;;19.50;99.90;;;;;;5073506;28;20189;-83
2022/05/13 07:25:27;;;;;;;8.48;3.92;;;19.50;99.90;;;;;;5068721;28;20287;-87
2022/05/13 07:27:59;;;;;;;7.32;3.72;;;19.50;99.90;;;;;;5072900;28;20181;-83
2022/05/13 07:30:30;;;;;;;5.90;3.40;;;19.50;99.90;;;;;;5072698;28;20204;-84
2022/05/13 07:33:01;;;;;;;6.22;3.58;;;19.40;99.90;;;;;;5065478;28;20189;-83
2022/05/13 07:35:31;;;;;;;5.45;3.60;;;19.40;99.90;;;;;;5069339;28;20707;-84
2022/05/13 07:38:02;;;;;;;6.03;3.50;;;19.40;99.90;;;;;;5068521;28;20196;-85
2022/05/13 07:43:23;;;;;;;8.65;4.10;;;19.30;99.90;;;;;;5065019;28;20258;-84
2022/05/13 07:45:53;;;;;;;9.35;4.28;;;19.30;99.90;;;;;;5073393;28;20593;-86
2022/05/13 07:48:24;;;;;;;8.80;4.22;;;19.20;99.90;;;;;;5066386;28;20190;-83
2022/05/13 07:50:55;;;;;;;7.50;4.03;;;19.20;99.90;;;;;;5074317;28;20192;-83
2022/05/13 07:53:25;;;;;;;7.60;3.88;;;19.20;99.90;;;;;;5073594;28;20193;-82
2022/05/13 07:55:56;;;;;;;10.60;4.68;;;19.10;99.90;;;;;;5073888;28;20228;-82
2022/05/13 07:58:28;;;;;;;7.85;4.18;;;19.10;99.90;;;;;;5073928;28;20197;-82
2022/05/13 08:01:00;;;;;;;8.77;4.72;;;19.10;99.90;;;;;;5072688;28;20599;-83
2022/05/13 08:03:32;;;;;;;7.78;4.28;;;19.10;99.90;;;;;;5069306;28;20212;-83
2022/05/13 08:06:05;;;;;;;12.70;5.30;;;19.00;99.90;;;;;;5073379;28;20268;-84
2022/05/13 08:08:40;;;;;;;10.15;4.72;;;19.00;99.90;;;;;;5071795;28;20334;-83
2022/05/13 08:11:13;;;;;;;12.60;5.32;;;19.00;99.90;;;;;;5070784;28;20181;-86
2022/05/13 08:13:45;;;;;;;10.23;5.35;;;19.00;99.90;;;;;;5070416;28;20258;-83
2022/05/13 08:16:17;;;;;;;10.07;4.85;;;19.00;99.90;;;;;;5070643;28;20217;-83
2022/05/13 08:18:49;;;;;;;10.98;5.00;;;19.10;99.90;;;;;;5071349;28;20196;-82
2022/05/13 08:21:19;;;;;;;11.13;4.63;;;19.10;99.90;;;;;;5072281;28;20193;-82
2022/05/13 08:23:50;;;;;;;13.05;5.40;;;19.10;99.90;;;;;;5072176;28;20215;-84
2022/05/13 08:26:21;;;;;;;9.75;4.93;;;19.10;99.90;;;;;;5067699;28;20706;-83
2022/05/13 08:28:53;;;;;;;10.38;5.07;;;19.20;99.90;;;;;;5065833;28;20272;-84
2022/05/13 08:31:24;;;;;;;11.20;5.57;;;19.20;99.90;;;;;;5075396;28;20193;-82
2022/05/13 08:33:55;;;;;;;16.50;5.00;;;19.20;99.90;;;;;;5073221;28;20193;-83
2022/05/13 08:36:25;;;;;;;13.48;4.78;;;19.20;99.90;;;;;;5073813;28;20221;-83
2022/05/13 08:38:56;;;;;;;10.60;4.70;;;19.20;99.90;;;;;;5072516;28;20534;-82
2022/05/13 08:41:36;;;;;;;15.23;5.10;;;19.20;99.90;;;;;;5067191;28;20534;-83
2022/05/13 08:44:11;;;;;;;11.68;5.15;;;19.30;99.90;;;;;;5065447;28;20205;-82
2022/05/13 08:46:44;;;;;;;14.55;5.43;;;19.20;99.90;;;;;;5070533;28;20275;-83
2022/05/13 08:49:30;;;;;;;11.75;4.70;;;19.20;99.90;;;;;;5055763;28;20633;-82
2022/05/13 08:54:57;;;;;;;12.00;4.95;;;19.20;99.90;;;;;;5068144;28;20220;-82
2022/05/13 08:57:30;;;;;;;13.20;5.05;;;19.10;99.90;;;;;;5072895;28;20675;-85
2022/05/13 09:00:07;;;;;;;13.52;5.00;;;19.10;99.90;;;;;;5073049;28;20188;-82
2022/05/13 09:02:40;;;;;;;10.15;4.90;;;19.10;99.90;;;;;;5075262;28;20260;-82
2022/05/13 09:05:23;;;;;;;14.65;6.00;;;19.00;99.90;;;;;;5073662;28;20653;-82
2022/05/13 09:07:54;;;;;;;15.00;6.78;;;19.00;99.90;;;;;;5069864;28;20209;-83
2022/05/13 09:10:25;;;;;;;13.18;6.40;;;19.00;99.90;;;;;;5069243;28;20194;-81
2022/05/13 09:13:04;;;;;;;12.88;6.07;;;18.90;99.90;;;;;;5053821;28;20209;-83
2022/05/13 09:15:41;;;;;;;17.45;6.65;;;18.90;99.90;;;;;;5071477;28;20196;-82
2022/05/13 09:18:18;;;;;;;9.95;5.75;;;18.90;99.90;;;;;;5072501;28;20688;-83
2022/05/13 09:20:52;;;;;;;14.63;5.63;;;18.90;99.90;;;;;;5065161;28;20219;-83
2022/05/13 09:23:23;;;;;;;14.48;5.53;;;18.80;99.90;;;;;;5071902;28;20271;-82
2022/05/13 09:26:06;;;;;;;12.45;5.60;;;18.80;99.90;;;;;;5068729;28;20219;-83
2022/05/13 09:28:38;;;;;;;13.05;5.72;;;18.80;99.90;;;;;;5072562;28;20211;-82
2022/05/13 09:31:21;;;;;;;14.55;5.28;;;18.80;99.90;;;;;;5072239;28;20189;-81
2022/05/13 09:33:53;;;;;;;13.18;5.78;;;18.70;99.90;;;;;;5068079;28;20188;-83
2022/05/13 09:36:42;;;;;;;15.52;6.60;;;18.70;99.90;;;;;;5072403;28;20216;-82
2022/05/13 09:39:25;;;;;;;15.52;6.90;;;18.60;99.90;;;;;;5075447;28;20189;-81
2022/05/13 09:41:56;;;;;;;12.55;6.35;;;18.70;99.90;;;;;;5073897;28;20703;-83
2022/05/13 09:44:27;;;;;;;15.05;7.43;;;18.60;99.90;;;;;;5077129;28;20653;-83
2022/05/13 09:47:17;;;;;;;16.08;6.32;;;18.60;99.90;;;;;;5073052;28;20599;-83
2022/05/13 09:49:48;;;;;;;19.88;7.47;;;18.60;99.90;;;;;;5077612;28;20228;-83
2022/05/13 09:52:20;;;;;;;13.90;6.43;;;18.60;99.90;;;;;;5079531;28;20217;-82
2022/05/13 09:54:53;;;;;;;13.88;6.80;;;18.60;99.90;;;;;;5075626;28;20240;-82
2022/05/13 09:57:33;;;;;;;16.13;6.72;;;18.60;99.90;;;;;;5077669;28;20544;-82
2022/05/13 10:00:06;;;;;;;10.35;5.97;;;18.60;99.90;;;;;;5076149;28;20193;-83
2022/05/13 10:02:39;;;;;;;10.63;5.68;;;18.60;99.90;;;;;;5060964;28;20679;-81
2022/05/13 10:05:20;;;;;;;10.88;5.68;;;18.60;99.90;;;;;;5076588;28;20189;-83
2022/05/13 10:07:58;;;;;;;12.85;6.13;;;18.60;99.90;;;;;;5068393;28;20657;-82
2022/05/13 10:16:10;;;;;;;14.65;6.82;;;18.50;99.90;;;;;;5069183;28;20281;-82
2022/05/13 10:18:49;;;;;;;12.75;6.25;;;18.40;99.90;;;;;;5069876;28;20193;-82
2022/05/13 10:21:26;;;;;;;13.70;6.45;;;18.40;99.90;;;;;;5070080;28;20189;-83
2022/05/13 10:24:01;;;;;;;16.55;6.57;;;18.40;99.90;;;;;;5067350;28;20225;-82
2022/05/13 10:26:37;;;;;;;12.82;5.93;;;18.40;99.90;;;;;;5063795;28;20203;-83
2022/05/13 10:29:13;;;;;;;10.65;5.90;;;18.40;99.90;;;;;;5071902;28;20223;-82
2022/05/13 10:31:45;;;;;;;12.38;5.60;;;18.40;99.90;;;;;;5072117;28;20200;-81
2022/05/13 10:34:26;;;;;;;13.38;5.82;;;18.40;99.90;;;;;;5075631;28;20208;-82
2022/05/13 10:37:04;;;;;;;15.10;6.60;;;18.40;99.90;;;;;;5071793;28;20726;-82
2022/05/13 10:39:44;;;;;;;10.38;5.60;;;18.50;99.90;;;;;;5073805;28;20240;-83
2022/05/13 10:42:20;;;;;;;10.80;5.90;;;18.50;99.90;;;;;;5072281;28;20201;-82
2022/05/13 10:44:58;;;;;;;13.93;6.25;;;18.50;99.90;;;;;;5068051;28;20200;-82
2022/05/13 10:47:33;;;;;;;15.23;7.03;;;18.50;99.90;;;;;;5070476;28;20575;-82
2022/05/13 10:50:12;;;;;;;13.50;6.30;;;18.50;99.90;;;;;;5066801;28;20232;-82
2022/05/13 10:52:53;;;;;;;13.20;6.13;;;18.50;99.90;;;;;;5073162;28;20714;-82
2022/05/13 10:55:31;;;;;;;11.18;6.28;;;18.50;99.90;;;;;;5073107;28;20584;-82
2022/05/13 10:58:10;;;;;;;12.65;6.65;;;18.60;99.90;;;;;;5074408;28;20209;-82
2022/05/13 11:00:48;;;;;;;12.98;6.40;;;18.60;99.90;;;;;;5074421;28;20204;-81
2022/05/13 11:03:36;;;;;;;13.77;6.90;;;18.60;99.90;;;;;;5074465;28;20283;-82
2022/05/13 11:06:35;;;;;;;11.43;6.25;;;18.60;99.90;;;;;;5075625;28;20276;-82
2022/05/13 11:09:11;;;;;;;12.77;6.72;;;18.60;99.90;;;;;;5072717;28;20274;-82
2022/05/13 11:11:44;;;;;;;12.02;6.60;;;18.60;99.90;;;;;;5074046;28;20192;-83
2022/05/13 11:14:26;;;;;;;14.82;7.78;;;18.60;99.90;;;;;;5065063;28;20262;-82
2022/05/13 11:17:08;;;;;;;17.13;7.90;;;18.60;99.90;;;;;;5075449;28;20217;-82
2022/05/13 11:19:46;;;;;;;15.32;7.43;;;18.60;99.90;;;;;;5070978;28;20288;-83
2022/05/13 11:22:29;;;;;;;12.65;7.03;;;18.60;99.90;;;;;;5071530;28;20654;-82
2022/05/13 11:28:06;;;;;;;15.13;8.02;;;18.70;99.90;;;;;;5072629;28;20335;-81
2022/05/13 11:30:45;;;;;;;16.75;8.15;;;18.70;99.90;;;;;;5071609;28;20200;-81
2022/05/13 11:33:26;;;;;;;19.48;9.02;;;18.70;99.90;;;;;;5071050;28;20204;-81
2022/05/13 11:36:27;;;;;;;18.27;8.93;;;18.80;99.90;;;;;;5074164;28;20277;-81
2022/05/13 11:39:20;;;;;;;18.17;8.57;;;18.80;99.90;;;;;;5065394;28;20200;-82
2022/05/13 11:42:01;;;;;;;17.10;8.65;;;18.80;99.90;;;;;;5068549;28;20189;-82
2022/05/13 11:44:39;;;;;;;15.65;8.70;;;18.80;99.90;;;;;;5074196;28;20181;-81
2022/05/13 11:47:17;;;;;;;14.98;8.70;;;18.80;99.90;;;;;;5055369;28;20196;-83
2022/05/13 11:49:48;;;;;;;17.70;9.45;;;18.80;99.90;;;;;;5072528;28;20284;-81
2022/05/13 11:52:49;;;;;;;14.80;8.38;;;18.90;99.90;;;;;;5071489;28;20657;-81
2022/05/13 11:55:34;;;;;;;16.40;8.70;;;18.80;99.90;;;;;;5072893;28;20223;-81
2022/05/13 11:58:06;;;;;;;21.33;8.52;;;18.90;99.90;;;;;;5059066;28;20217;-81
2022/05/13 12:00:42;;;;;;;18.45;8.60;;;18.90;99.90;;;;;;5070427;28;20279;-81
2022/05/13 12:03:21;;;;;;;17.92;8.60;;;18.80;99.90;;;;;;5070576;28;20181;-85
2022/05/13 12:06:04;;;;;;;15.73;7.97;;;18.90;99.90;;;;;;5072312;28;20246;-82
2022/05/13 12:08:43;;;;;;;16.40;8.18;;;18.80;99.90;;;;;;5074803;28;20279;-82
2022/05/13 12:11:46;;;;;;;14.02;8.00;;;18.90;99.90;;;;;;5073239;28;20531;-88
2022/05/13 12:14:29;;;;;;;15.77;8.25;;;18.90;99.90;;;;;;5058588;28;20204;-83
2022/05/13 12:17:11;;;;;;;11.30;7.53;;;18.90;99.90;;;;;;5060445;28;20301;-83
2022/05/13 12:20:02;;;;;;;13.60;7.55;;;18.80;99.90;;;;;;5066321;28;20248;-82
2022/05/13 12:22:47;;;;;;;13.52;7.63;;;18.80;99.90;;;;;;5067417;28;20543;-82
2022/05/13 12:26:01;;;;;;;12.27;7.20;;;18.80;99.90;;;;;;5063001;28;20196;-83
2022/05/13 12:28:43;;;;;;;13.73;7.85;;;18.80;99.90;;;;;;5061004;28;20204;-84
2022/05/13 12:31:35;;;;;;;17.17;8.15;;;18.80;99.90;;;;;;5073488;28;20275;-85
2022/05/13 12:40:08;;;;;;;15.80;8.30;;;18.80;99.90;;;;;;5012825;28;20309;-86
2022/05/13 12:42:52;;;;;;;14.35;7.38;;;18.80;99.90;;;;;;5055133;28;20208;-82
2022/05/13 12:45:48;;;;;;;16.10;8.63;;;18.80;99.90;;;;;;5070138;28;20250;-83
2022/05/13 12:48:20;;;;;;;15.70;9.00;;;18.70;99.90;;;;;;5068742;28;20647;-82
2022/05/13 12:50:53;;;;;;;14.38;8.30;;;18.70;99.90;;;;;;5074045;28;20608;-82
2022/05/13 12:53:47;;;;;;;13.98;8.70;;;18.70;99.90;;;;;;5072905;28;20197;-83
2022/05/13 12:56:32;;;;;;;11.63;7.47;;;18.70;99.90;;;;;;5063092;28;20203;-82
2022/05/13 12:59:15;;;;;;;13.40;8.45;;;18.70;99.90;;;;;;5064193;28;20258;-82
2022/05/13 13:01:51;;;;;;;15.90;8.77;;;18.70;99.90;;;;;;5067428;28;20200;-82
2022/05/13 13:04:26;;;;;;;17.20;8.65;;;18.70;99.90;;;;;;5065692;28;20602;-83
2022/05/13 13:07:07;;;;;;;12.82;8.32;;;18.80;99.90;;;;;;5070966;28;20191;-83
2022/05/13 13:09:42;;;;;;;15.20;8.48;;;18.70;99.90;;;;;;5063229;28;20229;-82
2022/05/13 13:12:31;;;;;;;13.30;8.43;;;18.70;99.90;;;;;;5067068;28;20197;-82
2022/05/13 13:15:06;;;;;;;13.40;8.20;;;18.80;99.90;;;;;;5057089;28;20201;-82
2022/05/13 13:17:43;;;;;;;16.50;9.07;;;18.70;99.90;;;;;;5067538;28;20220;-82
2022/05/13 13:20:16;;;;;;;16.80;8.85;;;18.70;99.90;;;;;;5071895;28;20200;-81
2022/05/13 13:22:49;;;;;;;17.42;9.32;;;18.70;99.90;;;;;;5067920;28;20235;-82
2022/05/13 13:25:29;;;;;;;17.25;9.02;;;18.70;99.90;;;;;;5064705;28;20597;-82
2022/05/13 13:28:02;;;;;;;15.48;8.48;;;18.70;99.90;;;;;;5062747;28;20193;-82
2022/05/13 13:30:34;;;;;;;14.77;8.82;;;18.70;99.90;;;;;;5055622;28;20723;-83
2022/05/13 13:33:10;;;;;;;15.82;8.57;;;18.70;99.90;;;;;;5062945;28;20200;-86
2022/05/13 13:35:43;;;;;;;15.13;8.75;;;18.70;99.90;;;;;;5053416;28;20189;-83
2022/05/13 13:38:15;;;;;;;16.10;8.45;;;18.70;99.90;;;;;;5070970;28;20237;-82
2022/05/13 13:40:49;;;;;;;15.25;8.75;;;18.70;99.90;;;;;;5070182;28;20193;-83
2022/05/13 13:43:23;;;;;;;15.43;8.40;;;18.70;99.90;;;;;;5071209;28;20211;-82
2022/05/13 13:45:57;;;;;;;15.45;8.70;;;18.70;99.90;;;;;;5070975;28;20656;-82
2022/05/13 13:48:37;;;;;;;15.05;8.32;;;18.80;99.90;;;;;;5069981;28;20205;-83
2022/05/13 13:51:09;;;;;;;15.63;8.27;;;18.70;99.90;;;;;;5066181;28;20631;-82
2022/05/13 13:53:42;;;;;;;13.95;8.80;;;18.70;99.90;;;;;;5063884;28;20283;-81
2022/05/13 13:56:14;;;;;;;12.88;8.68;;;18.70;99.90;;;;;;5057597;28;20207;-83
2022/05/13 13:59:05;;;;;;;14.00;8.23;;;18.70;99.90;;;;;;5070135;28;20229;-83